createdAt,value
2022-09-10T12:05:34.016Z,0.88
2022-09-10T12:08:15.214Z,0.75
2022-09-10T12:10:49.844Z,0.90
2022-09-10T12:13:17.833Z,0.70
2022-09-10T12:15:52.736Z,0.55
2022-09-10T12:18:25.584Z,0.60
2022-09-10T12:20:59.348Z,0.60
2022-09-10T12:23:31.297Z,0.80
2022-09-10T12:26:00.796Z,1.10
2022-09-10T12:29:04.094Z,0.60
2022-09-10T12:32:05.884Z,1.05
2022-09-10T12:34:33.574Z,0.93
2022-09-10T12:37:21.683Z,0.80
2022-09-10T12:39:50.376Z,0.80
2022-09-10T12:42:33.017Z,0.80
2022-09-10T12:45:01.246Z,1.27
2022-09-10T12:47:50.365Z,0.45
2022-09-10T12:50:29.271Z,0.73
2022-09-10T12:53:34.328Z,0.52
2022-09-10T12:56:15.639Z,0.60
2022-09-10T12:58:59.361Z,0.50
2022-09-10T13:01:41.261Z,0.50
2022-09-10T13:04:24.459Z,0.70
2022-09-10T13:06:55.321Z,1.00
2022-09-10T13:09:29.080Z,0.68
2022-09-10T13:12:03.466Z,0.50
2022-09-10T13:14:36.756Z,0.70
2022-09-10T13:17:05.434Z,0.60
2022-09-10T13:19:51.932Z,1.00
2022-09-10T13:22:58.278Z,0.90
2022-09-10T13:25:36.941Z,0.35
2022-09-10T13:28:43.592Z,0.80
2022-09-10T13:31:19.227Z,0.40
2022-09-10T13:34:09.918Z,0.90
2022-09-10T13:36:48.040Z,0.65
2022-09-10T13:39:46.842Z,0.50
2022-09-10T13:42:35.603Z,0.70
2022-09-10T13:45:31.886Z,0.77
2022-09-10T13:48:02.297Z,1.35
2022-09-10T13:50:37.998Z,1.10
2022-09-10T13:53:10.638Z,1.58
2022-09-10T13:55:39.401Z,1.17
2022-09-10T13:58:16.448Z,1.00
2022-09-10T14:00:53.169Z,0.85
2022-09-10T14:03:23.990Z,0.70
2022-09-10T14:05:54.289Z,1.15
2022-09-10T14:08:26.625Z,1.10
2022-09-10T14:11:00.728Z,1.20
2022-09-10T14:13:36.864Z,0.50
2022-09-10T14:16:08.540Z,0.73
2022-09-10T14:18:43.332Z,1.10
2022-09-10T14:21:14.178Z,1.45
2022-09-10T14:23:45.823Z,0.93
2022-09-10T14:26:23.156Z,0.95
2022-09-10T14:28:55.175Z,0.80
2022-09-10T14:31:35.743Z,0.73
2022-09-10T14:34:26.999Z,0.73
2022-09-10T14:36:54.652Z,0.50
2022-09-10T14:39:23.650Z,0.63
2022-09-10T14:42:10.159Z,0.85
2022-09-10T14:44:43.508Z,0.68
2022-09-10T14:47:16.149Z,0.70
2022-09-10T14:49:47.155Z,0.60
2022-09-10T14:52:15.590Z,0.63
2022-09-10T14:54:43.557Z,0.65
2022-09-10T14:57:15.132Z,0.70
2022-09-10T14:59:46.199Z,0.50
2022-09-10T15:02:17.854Z,0.98
2022-09-10T15:04:45.962Z,1.02
2022-09-10T15:07:13.827Z,0.63
2022-09-10T15:09:41.833Z,0.65
2022-09-10T15:12:14.904Z,1.67
2022-09-10T15:14:44.004Z,1.55
2022-09-10T15:17:15.078Z,1.35
2022-09-10T15:19:42.929Z,1.55
2022-09-10T15:22:20.705Z,1.45
2022-09-10T15:25:08.650Z,1.75
2022-09-10T15:27:37.191Z,1.00
2022-09-10T15:30:07.934Z,1.23
2022-09-10T15:32:35.715Z,0.85
2022-09-10T15:35:04.253Z,1.58
2022-09-10T15:37:31.921Z,1.45
2022-09-10T15:39:59.810Z,1.30
2022-09-10T15:42:27.548Z,1.50
2022-09-10T15:44:55.269Z,1.38
2022-09-10T15:47:24.518Z,1.23
2022-09-10T15:49:53.614Z,0.93
2022-09-10T15:52:23.858Z,1.27
2022-09-10T15:54:51.579Z,0.82
2022-09-10T15:57:19.370Z,1.38
2022-09-10T15:59:47.264Z,1.38
2022-09-10T16:02:15.019Z,1.17
2022-09-10T16:04:44.099Z,0.98
2022-09-10T16:07:11.880Z,1.55
2022-09-10T16:09:40.009Z,0.75
2022-09-10T16:12:07.983Z,1.40
2022-09-10T16:14:35.914Z,1.10
2022-09-10T16:17:10.240Z,1.10
2022-09-10T16:19:38.082Z,1.35
2022-09-10T16:22:08.062Z,1.00
2022-09-10T16:24:35.758Z,1.45
2022-09-10T16:27:03.819Z,1.00
2022-09-10T16:29:32.553Z,1.00
2022-09-10T16:32:00.243Z,1.38
2022-09-10T16:34:27.977Z,1.20
2022-09-10T16:36:57.238Z,1.40
2022-09-10T16:39:26.487Z,1.70
2022-09-10T16:41:55.854Z,1.30
2022-09-10T16:44:24.140Z,1.27
2022-09-10T16:46:52.457Z,1.17
2022-09-10T16:49:20.354Z,0.98
2022-09-10T16:51:49.291Z,0.85
2022-09-10T16:54:19.429Z,1.00
2022-09-10T16:56:50.168Z,1.33
2022-09-10T16:59:20.287Z,0.60
2022-09-10T17:01:49.469Z,1.48
2022-09-10T17:04:21.346Z,0.93
2022-09-10T17:06:51.806Z,1.52
2022-09-10T17:09:19.793Z,1.30
2022-09-10T17:11:49.151Z,0.85
2022-09-10T17:14:16.918Z,1.05
2022-09-10T17:16:44.816Z,1.23
2022-09-10T17:19:15.139Z,1.05
2022-09-10T17:21:44.799Z,1.15
2022-09-10T17:24:14.453Z,1.20
2022-09-10T17:26:42.965Z,1.30
2022-09-10T17:29:14.600Z,1.10
2022-09-10T17:31:43.127Z,1.65
2022-09-10T17:34:12.733Z,0.80
2022-09-10T17:36:41.564Z,1.33
2022-09-10T17:39:09.339Z,1.20
2022-09-10T17:41:38.088Z,1.55
2022-09-10T17:44:06.715Z,1.50
2022-09-10T17:46:36.162Z,2.03
2022-09-10T17:49:04.781Z,0.90
2022-09-10T17:51:37.576Z,1.40
2022-09-10T17:54:05.438Z,1.13
2022-09-10T17:56:33.328Z,0.85
2022-09-10T17:59:03.009Z,1.15
2022-09-10T18:01:32.830Z,1.02
2022-09-10T18:04:02.901Z,1.10
2022-09-10T18:06:32.309Z,1.63
2022-09-10T18:09:01.804Z,1.52
2022-09-10T18:11:31.571Z,1.05
2022-09-10T18:14:00.579Z,1.88
2022-09-10T18:16:31.103Z,1.70
2022-09-10T18:19:00.584Z,1.50
2022-09-10T18:21:33.879Z,1.40
2022-09-10T18:24:03.270Z,1.48
2022-09-10T18:26:33.481Z,1.83
2022-09-10T18:29:03.923Z,1.08
2022-09-10T18:31:34.002Z,1.20
2022-09-10T18:34:05.378Z,1.13
2022-09-10T18:36:35.003Z,1.90
2022-09-10T18:39:04.033Z,1.63
2022-09-10T18:41:33.876Z,1.88
2022-09-10T18:44:04.029Z,1.98
2022-09-10T18:46:33.291Z,2.00
2022-09-10T18:49:02.297Z,2.20
2022-09-10T18:51:31.360Z,2.25
2022-09-10T18:54:02.509Z,1.48
2022-09-10T18:56:32.339Z,1.90
2022-09-10T18:59:04.564Z,1.20
2022-09-10T19:01:33.005Z,1.00
2022-09-10T19:04:03.083Z,1.13
2022-09-10T19:06:33.102Z,1.42
2022-09-10T19:09:05.061Z,0.77
2022-09-10T19:11:34.639Z,0.95
2022-09-10T19:14:04.703Z,1.10
2022-09-10T19:16:34.949Z,0.70
2022-09-10T19:19:05.286Z,1.15
2022-09-10T19:21:35.267Z,1.17
2022-09-10T19:24:04.901Z,1.13
2022-09-10T19:26:34.427Z,1.02
2022-09-10T19:29:03.474Z,0.90
2022-09-10T19:31:33.518Z,1.27
2022-09-10T19:34:03.230Z,1.50
2022-09-10T19:36:33.984Z,1.38
2022-09-10T19:39:02.162Z,0.90
2022-09-10T19:41:31.987Z,1.70
2022-09-10T19:44:00.996Z,1.48
2022-09-10T19:46:29.210Z,2.22
2022-09-10T19:48:59.335Z,1.15
2022-09-10T19:51:28.447Z,1.00
2022-09-10T19:53:56.664Z,0.90
2022-09-10T19:56:27.199Z,1.00
2022-09-10T19:58:56.811Z,1.10
2022-09-10T20:01:26.939Z,0.88
2022-09-10T20:03:56.172Z,0.90
2022-09-10T20:06:25.433Z,0.73
2022-09-10T20:08:53.816Z,1.38
2022-09-10T20:11:23.069Z,0.80
2022-09-10T20:13:56.222Z,1.02
2022-09-10T20:16:26.157Z,0.60
2022-09-10T20:18:54.365Z,0.80
2022-09-10T20:21:24.561Z,1.45
2022-09-10T20:23:55.552Z,0.95
2022-09-10T20:26:25.306Z,0.95
2022-09-10T20:28:56.815Z,1.35
2022-09-10T20:31:26.154Z,1.00
2022-09-10T20:33:56.256Z,0.80
2022-09-10T20:36:25.164Z,0.98
2022-09-10T20:38:53.362Z,1.10
2022-09-10T20:41:21.278Z,1.00
2022-09-10T20:43:51.675Z,0.70
2022-09-10T20:46:23.107Z,1.10
2022-09-10T20:48:51.949Z,0.90
2022-09-10T20:51:20.666Z,0.63
2022-09-10T20:53:49.165Z,1.05
2022-09-10T20:56:18.762Z,1.10
2022-09-10T20:58:47.773Z,1.13
2022-09-10T21:01:18.832Z,0.80
2022-09-10T21:03:49.969Z,0.88
2022-09-10T21:06:19.554Z,0.88
2022-09-10T21:08:48.981Z,1.20
2022-09-10T21:11:18.674Z,1.02
2022-09-10T21:13:48.319Z,1.88
2022-09-10T21:16:17.895Z,1.65
2022-09-10T21:18:54.375Z,1.50
2022-09-10T21:21:25.655Z,1.15
2022-09-10T21:23:55.168Z,1.60
2022-09-10T21:26:25.034Z,1.30
2022-09-10T21:28:53.713Z,0.75
2022-09-10T21:31:21.405Z,0.68
2022-09-10T21:33:50.956Z,1.20
2022-09-10T21:36:20.919Z,1.90
2022-09-10T21:38:49.300Z,1.23
2022-09-10T21:41:19.321Z,1.15
2022-09-10T21:43:48.334Z,1.52
2022-09-10T21:46:16.112Z,1.58
2022-09-10T21:48:44.027Z,1.17
2022-09-10T21:51:14.973Z,1.20
2022-09-10T21:53:43.825Z,1.02
2022-09-10T21:56:13.619Z,0.98
2022-09-10T21:58:42.097Z,1.40
2022-09-10T22:01:11.726Z,1.15
2022-09-10T22:03:40.104Z,0.85
2022-09-10T22:06:09.181Z,0.95
2022-09-10T22:08:40.036Z,1.40
2022-09-10T22:11:09.774Z,1.33
2022-09-10T22:13:38.958Z,1.13
2022-09-10T22:16:07.343Z,1.25
2022-09-10T22:18:37.529Z,1.63
2022-09-10T22:21:06.669Z,1.27
2022-09-10T22:23:36.199Z,2.25
2022-09-10T22:26:06.835Z,2.22
2022-09-10T22:28:35.653Z,2.47
2022-09-10T22:31:08.493Z,2.70
2022-09-10T22:33:36.844Z,2.85
2022-09-10T22:36:12.841Z,1.90
2022-09-10T22:38:40.837Z,2.30
2022-09-10T22:41:10.745Z,2.10
2022-09-10T22:43:39.014Z,1.83
2022-09-10T22:46:07.930Z,1.83
2022-09-10T22:48:37.581Z,1.83
2022-09-10T22:51:08.167Z,1.45
2022-09-10T22:53:36.225Z,1.50
2022-09-10T22:56:04.288Z,1.77
2022-09-10T22:58:34.021Z,2.30
2022-09-10T23:01:04.881Z,1.17
2022-09-10T23:03:35.596Z,1.13
2022-09-10T23:06:06.087Z,1.58
2022-09-10T23:08:34.808Z,1.60
2022-09-10T23:11:11.191Z,2.13
2022-09-10T23:13:40.349Z,2.00
2022-09-10T23:16:15.979Z,1.70
2022-09-10T23:18:47.427Z,1.85
2022-09-10T23:21:15.302Z,1.70
2022-09-10T23:23:46.077Z,2.05
2022-09-10T23:26:16.381Z,2.35
2022-09-10T23:28:45.892Z,2.08
2022-09-10T23:31:16.392Z,1.80
2022-09-10T23:33:46.219Z,1.65
2022-09-10T23:36:14.742Z,1.10
2022-09-10T23:38:43.758Z,2.15
2022-09-10T23:41:12.821Z,1.40
2022-09-10T23:43:41.330Z,1.90
2022-09-10T23:46:11.304Z,1.85
2022-09-10T23:48:41.304Z,2.17
2022-09-10T23:51:10.984Z,2.20
2022-09-10T23:53:39.775Z,1.30
2022-09-10T23:56:08.542Z,1.75
2022-09-10T23:58:36.232Z,2.35
